Time;durP1;ratioP1;P1;durP2;ratioP2;P2;SDS_P1;SDS_P2;PMS_P1;PMS_P2;Temp;Humidity;BMP_temperature;BMP_pressure;BME280_temperature;BME280_humidity;BME280_pressure;Samples;Min_cycle;Max_cycle;Signal;HPM_P1;HPM_P2
2021/04/25 00:02:14;;;;;;;2.17;1.20;;;;;;;9.19;49.86;99877.72;1986138;79;27484;-78
2021/04/25 00:05:18;;;;;;;3.96;1.24;;;;;;;9.18;49.95;99883.75;1986368;81;20183;-77
2021/04/25 00:08:20;;;;;;;2.84;1.44;;;;;;;9.15;50.05;99881.97;1985846;81;20184;-77
2021/04/25 00:11:21;;;;;;;1.36;1.10;;;;;;;9.12;50.11;99878.50;1986055;81;20168;-77
2021/04/25 00:14:23;;;;;;;2.89;1.11;;;;;;;9.07;50.30;99874.13;1985903;81;20695;-77
2021/04/25 00:17:25;;;;;;;2.39;1.30;;;;;;;9.07;50.41;99878.44;1989293;79;22177;-78
2021/04/25 00:20:27;;;;;;;3.30;1.33;;;;;;;9.03;50.63;99874.09;1991058;81;20175;-77
2021/04/25 00:23:29;;;;;;;3.39;1.10;;;;;;;9.00;50.68;99872.34;1990925;81;20252;-78
2021/04/25 00:26:30;;;;;;;2.70;1.29;;;;;;;8.99;50.81;99864.56;1990913;81;20260;-77
2021/04/25 00:29:32;;;;;;;3.45;1.52;;;;;;;8.99;50.84;99862.00;1991360;81;20179;-81
2021/04/25 00:32:34;;;;;;;5.64;1.42;;;;;;;8.96;50.80;99865.38;1989911;78;20195;-78
2021/04/25 00:35:37;;;;;;;8.25;2.96;;;;;;;8.92;51.05;99871.41;1990650;81;20234;-77
2021/04/25 00:38:38;;;;;;;3.69;1.40;;;;;;;8.86;51.53;99861.00;1990956;81;20191;-78
2021/04/25 00:41:40;;;;;;;2.53;1.41;;;;;;;8.85;51.60;99869.59;1991599;81;20227;-77
2021/04/25 00:44:44;;;;;;;3.38;1.69;;;;;;;8.84;51.51;99854.94;1991398;81;20218;-77
2021/04/25 00:47:50;;;;;;;2.49;1.14;;;;;;;8.74;51.91;99856.53;1985823;79;21411;-78
2021/04/25 00:50:51;;;;;;;2.80;1.24;;;;;;;8.75;51.75;99850.50;1985766;81;21109;-78
2021/04/25 00:53:55;;;;;;;4.21;1.27;;;;;;;8.70;51.87;99851.31;1986023;81;20179;-78
2021/04/25 00:56:58;;;;;;;4.09;1.30;;;;;;;8.67;51.97;99848.72;1989273;81;20183;-78
2021/04/25 01:00:00;;;;;;;1.90;1.27;;;;;;;8.59;52.29;99864.13;1986275;81;20227;-77
2021/04/25 01:03:05;;;;;;;2.42;1.31;;;;;;;8.59;52.31;99865.84;1980432;79;34192;-79
2021/04/25 01:06:06;;;;;;;2.91;1.35;;;;;;;8.56;52.50;99858.06;1980537;82;20218;-78
2021/04/25 01:09:08;;;;;;;2.49;1.38;;;;;;;8.52;52.95;99858.88;1981803;82;20204;-78
2021/04/25 01:12:10;;;;;;;3.39;1.50;;;;;;;8.48;52.95;99858.88;1980519;82;20846;-77
2021/04/25 01:15:14;;;;;;;5.84;1.46;;;;;;;8.46;52.88;99859.69;1981037;79;20839;-79
2021/04/25 01:18:16;;;;;;;2.47;1.40;;;;;;;8.40;53.27;99863.06;1991349;81;21038;-79
2021/04/25 01:21:17;;;;;;;2.21;1.15;;;;;;;8.37;53.40;99854.41;1991023;81;20201;-78
2021/04/25 01:24:19;;;;;;;2.15;1.23;;;;;;;8.34;53.43;99852.66;1991696;81;20191;-78
2021/04/25 01:27:21;;;;;;;1.69;1.30;;;;;;;8.30;53.56;99856.03;1990976;81;20201;-77
2021/04/25 01:30:28;;;;;;;3.03;1.60;;;;;;;8.27;53.69;99858.59;1989836;79;28951;-79
2021/04/25 01:33:33;;;;;;;2.75;1.48;;;;;;;8.25;53.93;99856.78;1986145;81;21026;-77
2021/04/25 01:36:34;;;;;;;2.78;1.40;;;;;;;8.23;53.98;99863.66;1985301;81;20205;-77
2021/04/25 01:39:36;;;;;;;2.08;1.64;;;;;;;8.21;54.04;99868.81;1986107;81;20188;-79
2021/04/25 01:42:38;;;;;;;2.53;2.09;;;;;;;8.17;54.27;99867.94;1985823;81;20232;-78
2021/04/25 01:45:40;;;;;;;2.03;1.29;;;;;;;8.11;54.77;99860.09;1985834;79;20309;-78
2021/04/25 01:48:43;;;;;;;3.34;1.70;;;;;;;8.13;54.40;99852.34;1990620;81;20213;-78
2021/04/25 01:51:45;;;;;;;1.39;1.20;;;;;;;8.09;54.79;99864.38;1990679;81;20751;-78
2021/04/25 01:54:47;;;;;;;2.71;1.35;;;;;;;8.06;54.83;99853.97;1990785;81;20653;-78
2021/04/25 01:57:49;;;;;;;4.38;1.52;;;;;;;8.05;55.10;99846.19;1991342;81;20187;-78
2021/04/25 02:00:51;;;;;;;3.05;1.70;;;;;;;8.03;55.12;99851.34;1988821;79;22881;-78
2021/04/25 02:03:53;;;;;;;1.79;1.30;;;;;;;7.98;55.42;99855.59;1987601;81;20236;-77
2021/04/25 02:06:54;;;;;;;3.59;1.38;;;;;;;8.00;55.10;99853.03;1986983;81;20241;-79
2021/04/25 02:09:57;;;;;;;2.34;1.76;;;;;;;7.97;55.18;99842.66;1987183;81;20193;-79
2021/04/25 02:12:59;;;;;;;2.29;1.60;;;;;;;7.95;55.35;99847.81;1988035;81;20179;-78
2021/04/25 02:16:01;;;;;;;3.59;1.64;;;;;;;7.87;55.87;99849.41;1987973;79;22058;-78
2021/04/25 02:19:03;;;;;;;3.46;1.79;;;;;;;7.87;55.67;99849.41;1992794;81;20167;-78
2021/04/25 02:22:05;;;;;;;2.67;1.90;;;;;;;7.80;56.02;99858.81;1992152;81;20159;-77
2021/04/25 02:25:10;;;;;;;3.04;1.49;;;;;;;7.78;56.20;99857.91;1992817;81;20277;-77
2021/04/25 02:28:12;;;;;;;3.16;1.65;;;;;;;7.77;56.15;99856.19;1992729;81;20199;-77
2021/04/25 02:31:14;;;;;;;2.94;1.88;;;;;;;7.77;56.08;99850.16;1989433;79;20192;-79
2021/04/25 02:34:16;;;;;;;1.73;1.42;;;;;;;7.74;56.06;99850.09;1987749;81;20312;-77
2021/04/25 02:37:18;;;;;;;2.40;1.58;;;;;;;7.74;56.19;99852.69;1987684;81;20200;-78
2021/04/25 02:40:22;;;;;;;3.39;1.70;;;;;;;7.72;56.15;99850.09;1987645;81;20176;-78
2021/04/25 02:43:23;;;;;;;3.10;1.79;;;;;;;7.69;56.38;99844.84;1987572;81;20233;-77
2021/04/25 02:46:25;;;;;;;4.10;2.21;;;;;;;7.64;56.62;99851.69;1988928;79;20846;-77
2021/04/25 02:49:27;;;;;;;2.86;1.98;;;;;;;7.63;56.65;99857.69;1993189;81;20211;-77
2021/04/25 02:52:28;;;;;;;4.24;1.74;;;;;;;7.65;56.26;99855.13;1991971;81;20205;-78
2021/04/25 02:55:30;;;;;;;4.88;2.31;;;;;;;7.57;56.77;99855.91;1992343;81;20634;-78
2021/04/25 02:58:32;;;;;;;3.80;2.30;;;;;;;7.52;56.99;99856.66;1992361;81;20317;-78
2021/04/25 03:01:34;;;;;;;3.29;1.65;;;;;;;7.46;57.14;99860.03;1991807;79;24037;-79
2021/04/25 03:04:35;;;;;;;5.39;2.61;;;;;;;7.43;57.21;99856.53;1991541;81;20673;-78
2021/04/25 03:07:37;;;;;;;3.79;1.64;;;;;;;7.38;57.33;99855.59;1990958;81;20207;-77
2021/04/25 03:10:39;;;;;;;3.72;1.95;;;;;;;7.31;57.37;99853.75;1991587;81;20203;-77
2021/04/25 03:13:41;;;;;;;3.04;1.86;;;;;;;7.26;57.43;99849.38;1990769;81;20207;-77
2021/04/25 03:16:42;;;;;;;3.66;2.00;;;;;;;7.19;57.65;99857.00;1987801;79;24721;-78
2021/04/25 03:19:45;;;;;;;6.00;2.50;;;;;;;7.09;58.27;99855.09;1986374;81;20202;-79
2021/04/25 03:22:47;;;;;;;4.18;2.15;;;;;;;7.00;58.70;99848.06;1985919;81;20312;-78
2021/04/25 03:25:49;;;;;;;2.75;1.80;;;;;;;6.97;58.69;99848.88;1986459;81;20701;-77
2021/04/25 03:28:50;;;;;;;3.34;1.85;;;;;;;6.92;58.54;99839.31;1986241;81;20937;-78
2021/04/25 03:31:52;;;;;;;4.18;1.96;;;;;;;6.85;58.79;99848.69;1988611;78;22038;-80
2021/04/25 03:34:54;;;;;;;3.92;2.38;;;;;;;6.82;58.95;99855.47;1991339;81;20342;-77
2021/04/25 03:37:56;;;;;;;4.55;2.47;;;;;;;6.74;59.22;99857.06;1990967;81;20834;-78
2021/04/25 03:40:58;;;;;;;3.35;2.00;;;;;;;6.59;59.76;99857.63;1991457;81;20375;-78
2021/04/25 03:44:00;;;;;;;3.86;2.15;;;;;;;6.52;60.11;99859.25;1990715;81;20175;-78
2021/04/25 03:47:01;;;;;;;4.46;1.98;;;;;;;6.38;60.92;99859.81;1987172;81;22501;-77
2021/04/25 03:50:03;;;;;;;4.70;1.98;;;;;;;6.17;61.61;99870.56;1985817;81;20218;-77
2021/04/25 03:53:05;;;;;;;2.71;1.75;;;;;;;6.09;62.23;99872.97;1985606;81;20599;-77
2021/04/25 03:56:07;;;;;;;3.36;1.86;;;;;;;5.92;63.09;99866.56;1982087;81;20353;-77
2021/04/25 03:59:09;;;;;;;2.46;1.79;;;;;;;5.83;62.82;99874.94;1985465;81;20837;-78
2021/04/25 04:02:11;;;;;;;2.22;1.74;;;;;;;5.79;63.42;99880.88;1988758;79;20330;-77
2021/04/25 04:05:13;;;;;;;1.96;1.71;;;;;;;5.65;63.90;99884.84;1990336;81;20473;-77
2021/04/25 04:08:15;;;;;;;2.76;2.15;;;;;;;5.67;63.57;99886.63;1990957;81;20440;-78
2021/04/25 04:11:17;;;;;;;4.88;2.33;;;;;;;5.75;63.22;99885.09;1990027;81;20306;-77
2021/04/25 04:14:18;;;;;;;2.76;2.39;;;;;;;5.85;62.73;99882.72;1990923;81;20376;-77
2021/04/25 04:17:20;;;;;;;5.15;2.90;;;;;;;5.92;62.26;99887.19;1986405;78;20709;-77
2021/04/25 04:20:21;;;;;;;4.09;2.16;;;;;;;5.91;62.02;99894.06;1987243;81;20360;-77
2021/04/25 04:23:23;;;;;;;6.95;2.85;;;;;;;5.94;61.92;99890.69;1985706;81;20469;-78
2021/04/25 04:26:25;;;;;;;4.61;2.17;;;;;;;5.96;61.73;99887.31;1985616;81;20335;-77
2021/04/25 04:29:28;;;;;;;4.09;2.45;;;;;;;5.88;61.93;99893.94;1985594;81;20466;-77
2021/04/25 04:32:29;;;;;;;3.19;2.24;;;;;;;5.89;62.00;99897.41;1989465;78;36354;-77
2021/04/25 04:35:32;;;;;;;5.03;2.42;;;;;;;5.85;62.37;99904.19;1990760;81;20271;-79
2021/04/25 04:38:34;;;;;;;6.16;2.61;;;;;;;5.81;62.63;99902.41;1991030;81;20364;-78
2021/04/25 04:41:35;;;;;;;2.70;2.04;;;;;;;5.83;62.44;99899.84;1990937;81;20404;-78
2021/04/25 04:44:37;;;;;;;4.25;2.49;;;;;;;5.84;62.47;99899.00;1990958;81;20342;-78
2021/04/25 04:47:43;;;;;;;5.09;2.21;;;;;;;5.85;62.37;99903.31;1989740;78;43417;-77
2021/04/25 04:50:45;;;;;;;2.84;2.55;;;;;;;5.87;62.39;99905.09;1990363;81;20328;-77
2021/04/25 04:53:47;;;;;;;4.72;2.78;;;;;;;5.89;62.55;99907.72;1990281;81;20358;-78
2021/04/25 04:56:49;;;;;;;4.88;2.03;;;;;;;5.91;62.52;99908.66;1990269;81;20368;-77
2021/04/25 04:59:51;;;;;;;3.74;1.89;;;;;;;5.86;62.95;99902.50;1990192;81;20334;-77
2021/04/25 05:02:52;;;;;;;3.40;2.05;;;;;;;5.74;63.68;99906.53;1985003;79;23135;-77
2021/04/25 05:05:54;;;;;;;4.22;2.20;;;;;;;5.69;63.95;99909.81;1985185;81;20564;-79
2021/04/25 05:08:56;;;;;;;2.21;1.95;;;;;;;5.74;63.80;99911.69;1985582;81;20327;-78
2021/04/25 05:11:57;;;;;;;3.89;2.40;;;;;;;5.80;63.56;99916.13;1985669;81;20320;-77
2021/04/25 05:14:59;;;;;;;3.29;1.92;;;;;;;5.84;63.31;99907.63;1986256;81;20397;-78
2021/04/25 05:18:04;;;;;;;4.53;2.66;;;;;;;5.97;62.77;99908.81;1985478;79;21359;-78
2021/04/25 05:21:05;;;;;;;3.10;2.45;;;;;;;6.08;62.32;99907.31;1985928;81;20891;-78
2021/04/25 05:24:08;;;;;;;5.38;2.67;;;;;;;6.19;62.09;99910.13;1988379;81;20304;-78
2021/04/25 05:27:10;;;;;;;5.72;2.61;;;;;;;6.32;61.82;99915.59;1985732;81;20764;-77
2021/04/25 05:30:12;;;;;;;3.22;2.10;;;;;;;6.44;60.61;99916.66;1985312;78;21485;-76
2021/04/25 05:33:13;;;;;;;3.65;2.45;;;;;;;6.61;60.21;99923.91;1991100;81;20366;-77
2021/04/25 05:36:15;;;;;;;3.28;2.11;;;;;;;6.75;59.68;99924.19;1991289;81;20348;-79
2021/04/25 05:39:17;;;;;;;4.72;2.47;;;;;;;6.92;58.93;99932.25;1991108;81;20322;-79
2021/04/25 05:42:19;;;;;;;4.04;2.14;;;;;;;7.73;56.98;99925.91;1991224;81;20432;-80
2021/04/25 05:45:21;;;;;;;4.20;2.66;;;;;;;8.84;53.99;99934.34;1990332;79;21974;-78
2021/04/25 05:48:22;;;;;;;5.32;3.03;;;;;;;9.39;51.15;99934.03;1986917;81;20219;-78
2021/04/25 05:51:24;;;;;;;3.88;2.34;;;;;;;9.53;50.44;99939.34;1982576;81;20387;-79
2021/04/25 05:54:26;;;;;;;5.65;2.59;;;;;;;9.75;49.80;99936.91;1986672;81;20213;-79
2021/04/25 05:57:28;;;;;;;3.16;2.05;;;;;;;9.91;49.12;99942.22;1986245;81;20203;-78
2021/04/25 06:00:32;;;;;;;3.14;2.04;;;;;;;9.82;48.12;99941.28;1985758;79;20848;-78
2021/04/25 06:03:34;;;;;;;4.78;2.46;;;;;;;10.19;47.93;99938.06;1987313;81;20240;-78
2021/04/25 06:06:35;;;;;;;3.40;2.51;;;;;;;10.52;47.25;99945.22;1986403;81;20196;-78
2021/04/25 06:09:37;;;;;;;4.18;2.51;;;;;;;10.52;46.08;99940.03;1986367;81;20180;-78
2021/04/25 06:12:39;;;;;;;4.70;2.61;;;;;;;10.84;46.19;99939.28;1987330;81;20183;-79
2021/04/25 06:15:40;;;;;;;4.29;2.42;;;;;;;10.88;45.65;99933.22;1986843;79;21320;-78
2021/04/25 06:18:42;;;;;;;5.40;2.65;;;;;;;11.16;44.71;99937.66;1991273;81;20207;-78
2021/04/25 06:21:44;;;;;;;4.91;2.35;;;;;;;11.67;44.55;99935.06;1991577;81;20203;-78
2021/04/25 06:24:45;;;;;;;3.22;2.58;;;;;;;11.98;43.03;99942.03;1992274;81;20370;-78
2021/04/25 06:27:48;;;;;;;4.70;2.25;;;;;;;12.39;42.13;99936.75;1990723;81;20179;-78
2021/04/25 06:30:49;;;;;;;4.07;2.40;;;;;;;12.55;41.29;99940.13;1989519;79;24448;-77
2021/04/25 06:33:51;;;;;;;3.01;2.26;;;;;;;12.71;41.58;99941.81;1986132;81;20176;-78
2021/04/25 06:36:53;;;;;;;6.95;2.49;;;;;;;12.94;40.84;99938.25;1986798;81;20204;-77
2021/04/25 06:39:55;;;;;;;4.56;2.85;;;;;;;12.96;40.49;99939.13;1986506;81;20192;-78
2021/04/25 06:43:00;;;;;;;4.99;2.72;;;;;;;13.23;40.96;99940.72;1990223;81;20203;-78
2021/04/25 06:46:02;;;;;;;6.11;2.59;;;;;;;13.36;40.13;99934.53;1985531;79;23414;-78
2021/04/25 06:49:04;;;;;;;5.91;2.83;;;;;;;13.49;40.25;99933.59;1989952;81;20201;-78
2021/04/25 06:52:06;;;;;;;4.76;2.70;;;;;;;13.71;39.49;99931.66;1986781;81;20215;-76
2021/04/25 06:55:15;;;;;;;6.72;2.85;;;;;;;13.84;39.59;99932.44;1989112;81;20197;-75
2021/04/25 06:58:17;;;;;;;5.57;2.45;;;;;;;13.99;39.12;99923.56;1986870;81;20577;-76
2021/04/25 07:01:18;;;;;;;5.26;2.61;;;;;;;14.06;38.78;99923.50;1988209;79;21148;-74
2021/04/25 07:04:20;;;;;;;3.25;2.26;;;;;;;14.20;38.30;99931.22;1992675;81;20220;-75
2021/04/25 07:07:22;;;;;;;3.88;2.88;;;;;;;14.38;38.21;99928.41;1991534;81;20207;-74
2021/04/25 07:10:24;;;;;;;4.43;2.29;;;;;;;14.37;38.26;99926.66;1992411;81;20199;-73
2021/04/25 07:13:26;;;;;;;4.40;2.42;;;;;;;14.41;37.94;99917.03;1994122;81;20234;-81
2021/04/25 07:16:28;;;;;;;6.84;2.86;;;;;;;14.40;37.22;99921.41;1991193;79;20573;-80
2021/04/25 07:19:30;;;;;;;4.69;2.44;;;;;;;14.55;37.01;99922.16;1992205;81;20453;-78
2021/04/25 07:22:32;;;;;;;3.67;2.47;;;;;;;14.70;37.08;99924.56;1990082;81;20255;-77
2021/04/25 07:25:34;;;;;;;9.57;3.10;;;;;;;14.72;36.55;99922.78;1986272;81;20168;-76
2021/04/25 07:28:37;;;;;;;4.68;2.34;;;;;;;14.79;36.08;99919.22;1987073;81;20707;-76
2021/04/25 07:31:39;;;;;;;5.14;2.16;;;;;;;14.95;36.59;99918.13;1985922;79;23593;-76
2021/04/25 07:34:41;;;;;;;3.28;2.21;;;;;;;15.23;36.48;99928.19;1987672;81;20882;-79
2021/04/25 07:37:44;;;;;;;4.63;2.53;;;;;;;15.49;35.35;99925.19;1987770;81;20235;-78
2021/04/25 07:40:49;;;;;;;6.04;2.14;;;;;;;15.54;34.72;99928.59;1988508;81;20619;-76
2021/04/25 07:43:51;;;;;;;5.46;2.03;;;;;;;15.49;34.60;99927.81;1987039;81;20199;-82
2021/04/25 07:46:54;;;;;;;4.26;2.39;;;;;;;15.57;34.83;99929.41;1992291;79;23023;-80
2021/04/25 07:49:56;;;;;;;4.69;2.60;;;;;;;15.68;34.30;99926.66;1992687;81;20175;-76
2021/04/25 07:52:58;;;;;;;3.71;2.20;;;;;;;15.90;34.01;99925.38;1991751;81;20278;-78
2021/04/25 07:56:00;;;;;;;7.49;3.38;;;;;;;15.91;33.37;99918.41;1995018;81;20216;-73
2021/04/25 07:59:02;;;;;;;10.05;3.90;;;;;;;16.02;33.23;99930.41;1993185;81;20910;-77
2021/04/25 08:02:04;;;;;;;6.30;3.17;;;;;;;16.08;32.74;99929.44;1992271;79;20191;-77
2021/04/25 08:05:08;;;;;;;16.95;3.13;;;;;;;16.22;31.26;99924.81;1993561;81;20186;-80
2021/04/25 08:08:11;;;;;;;19.56;9.20;;;;;;;16.12;31.17;99927.63;1992806;81;20855;-79
2021/04/25 08:11:13;;;;;;;11.11;4.89;;;;;;;16.13;31.65;99926.72;1992770;81;20629;-77
2021/04/25 08:14:14;;;;;;;6.38;3.06;;;;;;;16.32;31.90;99921.09;1992000;81;20175;-79
2021/04/25 08:17:16;;;;;;;6.21;2.72;;;;;;;16.46;31.05;99927.84;1987007;79;26697;-78
2021/04/25 08:20:18;;;;;;;5.18;2.14;;;;;;;16.52;31.04;99925.13;1988231;81;20213;-78
2021/04/25 08:23:20;;;;;;;8.44;3.56;;;;;;;16.65;31.04;99929.19;1987310;81;20172;-79
2021/04/25 08:26:22;;;;;;;8.36;3.15;;;;;;;16.61;31.41;99930.16;1986518;81;20205;-78
2021/04/25 08:29:24;;;;;;;8.75;2.41;;;;;;;16.83;31.30;99926.22;1986245;81;20401;-78
2021/04/25 08:32:25;;;;;;;5.84;2.31;;;;;;;16.91;30.70;99924.31;1989683;79;22056;-78
2021/04/25 08:35:27;;;;;;;5.44;1.95;;;;;;;17.14;30.77;99910.69;1991753;81;20191;-78
2021/04/25 08:38:28;;;;;;;3.47;1.74;;;;;;;17.31;30.30;99915.53;1991654;81;20202;-77
2021/04/25 08:41:30;;;;;;;3.47;2.06;;;;;;;17.44;30.49;99917.00;1992204;81;20209;-79
2021/04/25 08:44:32;;;;;;;7.55;1.79;;;;;;;17.45;29.52;99916.09;1991699;81;20629;-78
2021/04/25 08:47:44;;;;;;;5.01;1.95;;;;;;;17.40;30.35;99896.94;1986834;81;22256;-77
2021/04/25 08:50:46;;;;;;;4.09;2.30;;;;;;;17.49;30.52;99909.84;1987009;81;20180;-77
2021/04/25 08:53:49;;;;;;;7.43;2.34;;;;;;;17.75;29.86;99903.97;1986749;81;20225;-78
2021/04/25 08:56:53;;;;;;;4.65;1.74;;;;;;;17.65;29.78;99912.13;1987711;81;20201;-78
2021/04/25 08:59:55;;;;;;;7.70;2.04;;;;;;;17.50;28.63;99915.97;1987012;81;20193;-77
2021/04/25 09:02:56;;;;;;;4.10;1.80;;;;;;;17.37;28.63;99914.53;1990685;79;24327;-77
2021/04/25 09:06:01;;;;;;;9.36;2.22;;;;;;;17.58;29.12;99907.88;1991104;81;20237;-77
2021/04/25 09:09:04;;;;;;;4.85;1.75;;;;;;;17.74;29.44;99897.00;1992544;81;20224;-77
2021/04/25 09:12:06;;;;;;;8.88;2.39;;;;;;;17.84;29.50;99896.78;1991760;81;20183;-76
2021/04/25 09:15:10;;;;;;;3.99;1.75;;;;;;;17.99;28.42;99893.75;1990529;81;20411;-78
2021/04/25 09:18:12;;;;;;;5.50;2.16;;;;;;;17.84;27.01;99902.91;1991923;78;21189;-76
2021/04/25 09:21:13;;;;;;;4.40;1.41;;;;;;;17.57;27.32;99891.28;1991682;81;21052;-78
2021/04/25 09:24:29;;;;;;;3.14;1.67;;;;;;;17.52;27.31;99891.41;1991796;81;20582;-77
2021/04/25 09:27:30;;;;;;;5.65;1.94;;;;;;;17.74;28.21;99889.13;1990847;81;20186;-78
2021/04/25 09:30:32;;;;;;;4.55;2.20;;;;;;;17.80;28.50;99888.13;1990576;79;21709;-78
2021/04/25 09:33:52;;;;;;;3.38;1.60;;;;;;;17.84;28.30;99888.91;1987218;81;20376;-77
2021/04/25 09:36:56;;;;;;;3.63;1.65;;;;;;;17.80;28.42;99885.50;1986850;81;20188;-78
2021/04/25 09:40:02;;;;;;;5.21;2.08;;;;;;;17.50;29.04;99880.06;1992799;81;20204;-81
2021/04/25 09:43:10;;;;;;;4.44;1.46;;;;;;;17.44;28.75;99874.13;1986064;81;20835;-81
2021/04/25 09:46:11;;;;;;;3.90;1.59;;;;;;;17.93;28.49;99884.25;1997368;79;24977;-82
2021/04/25 09:49:43;;;;;;;4.15;1.71;;;;;;;17.87;27.62;99881.78;1999291;81;20195;-81
2021/04/25 09:52:49;;;;;;;4.31;1.45;;;;;;;17.91;27.82;99891.31;1998051;81;20163;-80
2021/04/25 09:55:57;;;;;;;5.56;1.88;;;;;;;17.97;27.95;99877.19;1998935;81;20179;-81
2021/04/25 09:59:01;;;;;;;2.19;1.20;;;;;;;18.23;27.35;99885.19;2001286;81;20183;-82
2021/04/25 10:02:06;;;;;;;2.83;1.30;;;;;;;18.18;26.44;99879.22;2000821;81;20226;-81
2021/04/25 10:05:08;;;;;;;3.30;1.31;;;;;;;18.34;27.30;99888.41;2000122;81;20179;-81
2021/04/25 10:08:29;;;;;;;5.20;1.66;;;;;;;18.04;26.91;99878.72;1999373;81;20175;-81
2021/04/25 10:11:33;;;;;;;3.61;1.49;;;;;;;17.91;27.84;99870.28;2002439;81;20297;-84
2021/04/25 10:14:35;;;;;;;3.25;1.23;;;;;;;18.15;27.71;99863.53;1998563;81;20171;-82
2021/04/25 10:17:56;;;;;;;6.14;1.50;;;;;;;18.02;27.58;99868.25;2001284;78;24697;-81
2021/04/25 10:20:57;;;;;;;4.28;1.10;;;;;;;17.88;25.98;99852.00;2002717;81;20297;-83
2021/04/25 10:24:05;;;;;;;4.65;1.10;;;;;;;18.13;26.96;99865.31;2002441;81;20197;-83
2021/04/25 10:27:12;;;;;;;5.89;1.44;;;;;;;18.29;25.96;99869.25;2003320;81;20526;-82
2021/04/25 10:30:15;;;;;;;4.19;1.42;;;;;;;18.49;26.25;99860.81;2003153;79;31442;-82
2021/04/25 10:33:17;;;;;;;2.97;1.31;;;;;;;18.83;26.85;99868.56;1997387;81;20217;-83
2021/04/25 10:36:22;;;;;;;3.42;1.10;;;;;;;18.96;25.50;99862.03;1998327;81;20201;-83
2021/04/25 10:43:05;;;;;;;1.35;0.90;;;;;;;19.30;25.58;99869.72;1994489;71;20365;-84
2021/04/25 10:46:07;;;;;;;3.25;1.20;;;;;;;19.18;25.17;99867.47;1993318;78;46679;-83
2021/04/25 10:52:43;;;;;;;3.30;1.34;;;;;;;18.63;24.65;99860.41;2003231;71;20176;-82
2021/04/25 10:56:13;;;;;;;3.01;1.14;;;;;;;18.47;25.24;99845.94;1993316;81;20215;-80
2021/04/25 10:59:24;;;;;;;3.33;1.10;;;;;;;18.63;25.67;99842.88;1995976;81;20184;-81
2021/04/25 11:02:46;;;;;;;1.64;0.88;;;;;;;19.11;26.13;99831.72;1993351;79;20836;-81
2021/04/25 11:05:50;;;;;;;4.18;1.10;;;;;;;19.41;24.59;99837.78;1993572;81;20200;-81
2021/04/25 11:08:52;;;;;;;2.06;1.05;;;;;;;19.56;25.21;99832.00;1996366;81;20225;-80
2021/04/25 11:11:56;;;;;;;2.59;1.08;;;;;;;19.85;24.08;99833.63;1996091;81;20277;-81
2021/04/25 11:14:58;;;;;;;2.78;1.20;;;;;;;19.88;23.81;99838.78;1996711;81;20187;-81
2021/04/25 11:17:59;;;;;;;5.34;1.06;;;;;;;19.68;22.96;99838.63;1994307;79;20316;-82
2021/04/25 11:21:01;;;;;;;2.01;0.90;;;;;;;19.87;24.61;99841.50;1995286;81;20175;-80
2021/04/25 11:24:03;;;;;;;2.42;0.99;;;;;;;20.20;24.06;99823.59;1994847;81;20998;-80
2021/04/25 11:27:06;;;;;;;2.76;1.09;;;;;;;20.15;23.60;99836.97;1996750;81;20176;-80
2021/04/25 11:30:08;;;;;;;5.59;1.15;;;;;;;20.15;23.43;99823.78;1991615;81;20179;-80
2021/04/25 11:33:33;;;;;;;2.88;1.05;;;;;;;20.35;23.74;99819.53;1992485;81;20176;-79
2021/04/25 11:36:37;;;;;;;5.72;1.30;;;;;;;20.24;23.82;99833.13;1990586;81;20359;-80
2021/04/25 11:39:54;;;;;;;2.50;1.10;;;;;;;20.42;23.25;99832.47;1992945;81;20168;-80
2021/04/25 11:42:55;;;;;;;2.99;0.90;;;;;;;20.34;22.72;99818.69;1995746;81;20172;-81
2021/04/25 11:45:57;;;;;;;2.34;1.00;;;;;;;20.45;22.85;99831.47;1994137;78;20208;-80
2021/04/25 11:49:01;;;;;;;5.45;0.89;;;;;;;20.07;21.62;99817.91;1994921;81;20180;-81
2021/04/25 11:52:10;;;;;;;2.39;1.00;;;;;;;20.15;23.10;99825.56;1994592;81;20233;-81
2021/04/25 11:55:14;;;;;;;2.05;0.91;;;;;;;20.27;23.12;99835.63;1995187;81;20211;-80
2021/04/25 11:58:18;;;;;;;2.16;0.85;;;;;;;20.06;22.52;99826.72;1993333;81;20179;-81
2021/04/25 12:01:23;;;;;;;1.11;0.89;;;;;;;20.10;22.64;99828.34;1989855;78;20743;-78
2021/04/25 12:04:42;;;;;;;3.55;1.26;;;;;;;20.28;22.64;99810.13;1988540;81;20253;-78
2021/04/25 12:07:47;;;;;;;3.67;0.77;;;;;;;20.42;22.64;99814.00;1987240;81;20200;-78
2021/04/25 12:10:50;;;;;;;3.54;0.82;;;;;;;20.46;22.69;99805.03;1986914;81;20250;-79
2021/04/25 12:13:53;;;;;;;2.31;1.20;;;;;;;20.36;21.40;99816.84;1990800;81;20293;-81
2021/04/25 12:17:14;;;;;;;3.74;0.77;;;;;;;20.27;21.17;99817.16;1992239;79;21223;-80
2021/04/25 12:20:15;;;;;;;4.55;0.77;;;;;;;20.04;22.37;99806.63;1993269;81;20541;-81
2021/04/25 12:23:21;;;;;;;3.72;0.66;;;;;;;20.29;22.54;99806.56;1990475;81;20191;-79
2021/04/25 12:26:25;;;;;;;1.79;0.95;;;;;;;20.70;22.94;99805.91;1991679;81;20488;-80
2021/04/25 12:29:37;;;;;;;3.61;1.20;;;;;;;21.02;22.29;99814.31;1993814;81;20172;-79
2021/04/25 12:32:39;;;;;;;3.01;0.93;;;;;;;21.05;21.83;99808.91;1990272;79;21356;-80
2021/04/25 12:35:47;;;;;;;4.79;0.85;;;;;;;20.69;20.81;99811.22;1990835;81;20316;-81
2021/04/25 12:38:57;;;;;;;2.64;0.84;;;;;;;20.76;21.35;99800.38;1989424;81;20397;-80
2021/04/25 12:41:58;;;;;;;1.89;0.69;;;;;;;21.00;21.76;99790.59;1991126;81;20764;-79
2021/04/25 12:45:00;;;;;;;5.04;1.15;;;;;;;21.08;21.51;99798.22;1992552;81;20179;-80
2021/04/25 12:48:36;;;;;;;3.66;0.90;;;;;;;20.74;20.37;99785.50;1985846;79;36678;-81
2021/04/25 12:51:40;;;;;;;5.07;0.85;;;;;;;20.79;21.36;99783.53;1986191;82;20282;-80
2021/04/25 12:54:44;;;;;;;2.25;0.80;;;;;;;20.45;21.30;99778.72;1989500;81;20299;-80
2021/04/25 12:57:46;;;;;;;1.69;0.81;;;;;;;20.59;21.60;99783.47;1985219;82;20176;-80
2021/04/25 13:00:48;;;;;;;0.74;0.65;;;;;;;20.46;21.44;99781.31;1985591;79;23109;-80
2021/04/25 13:03:50;;;;;;;2.42;0.64;;;;;;;20.70;21.07;99783.94;1989757;81;20205;-80
2021/04/25 13:07:15;;;;;;;0.96;0.59;;;;;;;20.73;20.63;99771.47;1991354;81;20290;-78
2021/04/25 13:10:32;;;;;;;1.26;0.68;;;;;;;20.91;20.35;99766.38;1992519;81;20164;-81
2021/04/25 13:13:34;;;;;;;3.39;0.63;;;;;;;20.87;19.96;99765.63;1989883;81;20217;-78
2021/04/25 13:16:37;;;;;;;5.20;1.05;;;;;;;20.98;20.27;99765.19;1986927;79;21084;-77
2021/04/25 13:19:39;;;;;;;1.91;0.70;;;;;;;20.97;20.50;99768.75;1987526;81;20627;-77
2021/04/25 13:22:54;;;;;;;2.36;0.61;;;;;;;20.86;19.28;99744.59;1987847;81;20179;-77
2021/04/25 13:26:01;;;;;;;1.74;0.63;;;;;;;20.76;20.53;99747.56;1987211;81;20188;-78
2021/04/25 13:29:06;;;;;;;4.20;0.60;;;;;;;20.77;19.37;99751.94;1987367;81;20718;-77
2021/04/25 13:32:09;;;;;;;2.19;0.90;;;;;;;21.05;20.61;99758.75;1987970;79;24122;-78
2021/04/25 13:35:11;;;;;;;2.83;1.00;;;;;;;20.90;19.58;99744.38;1989596;81;20564;-80
2021/04/25 13:38:15;;;;;;;1.19;0.64;;;;;;;21.07;20.69;99743.69;1988302;81;20211;-77
2021/04/25 13:41:17;;;;;;;3.91;0.77;;;;;;;21.34;20.16;99745.19;1987110;81;20794;-74
2021/04/25 13:44:21;;;;;;;3.29;1.00;;;;;;;21.01;19.80;99741.31;1986428;81;20996;-74
2021/04/25 13:47:23;;;;;;;1.38;0.50;;;;;;;20.99;18.67;99736.06;1985628;79;36887;-73
2021/04/25 13:50:25;;;;;;;2.28;0.56;;;;;;;20.87;19.88;99726.03;1987093;81;20164;-73
2021/04/25 13:53:28;;;;;;;3.50;0.60;;;;;;;21.17;19.78;99723.88;1987872;81;20205;-73
2021/04/25 13:56:29;;;;;;;1.85;0.70;;;;;;;21.42;19.51;99723.75;1984454;81;20196;-73
2021/04/25 13:59:31;;;;;;;2.19;0.70;;;;;;;21.37;18.50;99729.22;1996867;81;20209;-81
2021/04/25 14:02:33;;;;;;;1.54;0.60;;;;;;;21.30;18.91;99724.25;1997661;79;20250;-82
2021/04/25 14:05:35;;;;;;;1.40;0.69;;;;;;;20.99;18.44;99724.66;1996090;81;20200;-80
2021/04/25 14:08:39;;;;;;;2.40;0.66;;;;;;;21.11;19.47;99710.94;1995689;81;20187;-80
2021/04/25 14:11:40;;;;;;;3.03;0.70;;;;;;;21.21;19.61;99712.28;1998305;81;20193;-81
2021/04/25 14:14:42;;;;;;;1.54;0.60;;;;;;;21.13;19.57;99703.81;1996044;81;20192;-82
2021/04/25 14:17:45;;;;;;;2.97;0.80;;;;;;;21.17;19.08;99710.66;1994726;79;76647;-76
2021/04/25 14:20:47;;;;;;;1.90;0.60;;;;;;;21.02;17.26;99696.38;1984774;81;20192;-79
2021/04/25 14:23:49;;;;;;;4.24;0.98;;;;;;;20.77;18.89;99698.28;1996696;81;20200;-82
2021/04/25 14:26:52;;;;;;;1.96;0.50;;;;;;;20.98;19.67;99707.94;1994187;81;20265;-79
2021/04/25 14:29:54;;;;;;;3.20;0.70;;;;;;;20.98;19.35;99683.34;1988307;81;20241;-79
2021/04/25 14:32:57;;;;;;;0.91;0.50;;;;;;;21.21;19.43;99695.59;1987407;78;66938;-79
2021/04/25 14:36:08;;;;;;;2.36;0.60;;;;;;;20.94;18.00;99689.66;1995514;81;20192;-82